sensor_id;sensor_type;location;lat;lon;timestamp;P1;durP1;ratioP1;P2;durP2;ratioP2
68234;SDS011;55052;52.056;5.296;2023-04-03T00:00:40;4.75;;;2.10;;
68234;SDS011;55052;52.056;5.296;2023-04-03T00:03:07;5.78;;;2.35;;
68234;SDS011;55052;52.056;5.296;2023-04-03T00:05:34;5.00;;;2.28;;
68234;SDS011;55052;52.056;5.296;2023-04-03T00:08:01;9.10;;;2.60;;
68234;SDS011;55052;52.056;5.296;2023-04-03T00:10:28;3.80;;;1.90;;
68234;SDS011;55052;52.056;5.296;2023-04-03T00:12:55;3.38;;;1.92;;
68234;SDS011;55052;52.056;5.296;2023-04-03T00:15:22;3.75;;;1.92;;
68234;SDS011;55052;52.056;5.296;2023-04-03T00:17:48;3.95;;;1.98;;
68234;SDS011;55052;52.056;5.296;2023-04-03T00:20:15;3.58;;;1.77;;
68234;SDS011;55052;52.056;5.296;2023-04-03T00:22:42;3.75;;;1.95;;
68234;SDS011;55052;52.056;5.296;2023-04-03T00:25:09;6.50;;;2.38;;
68234;SDS011;55052;52.056;5.296;2023-04-03T00:27:37;4.47;;;2.13;;
68234;SDS011;55052;52.056;5.296;2023-04-03T00:30:06;4.78;;;2.13;;
68234;SDS011;55052;52.056;5.296;2023-04-03T00:32:34;3.53;;;1.90;;
68234;SDS011;55052;52.056;5.296;2023-04-03T00:35:01;4.60;;;2.00;;
68234;SDS011;55052;52.056;5.296;2023-04-03T00:37:28;5.80;;;2.20;;
68234;SDS011;55052;52.056;5.296;2023-04-03T00:39:54;4.40;;;1.98;;
68234;SDS011;55052;52.056;5.296;2023-04-03T00:42:21;3.78;;;1.88;;
68234;SDS011;55052;52.056;5.296;2023-04-03T00:47:16;5.50;;;2.20;;
68234;SDS011;55052;52.056;5.296;2023-04-03T00:49:44;3.78;;;2.10;;
68234;SDS011;55052;52.056;5.296;2023-04-03T00:52:13;3.53;;;1.90;;
68234;SDS011;55052;52.056;5.296;2023-04-03T00:54:42;5.13;;;2.10;;
68234;SDS011;55052;52.056;5.296;2023-04-03T00:57:11;4.93;;;2.28;;
68234;SDS011;55052;52.056;5.296;2023-04-03T00:59:39;4.07;;;2.17;;
68234;SDS011;55052;52.056;5.296;2023-04-03T01:02:10;6.82;;;2.13;;
68234;SDS011;55052;52.056;5.296;2023-04-03T01:04:38;6.43;;;2.00;;
68234;SDS011;55052;52.056;5.296;2023-04-03T01:07:10;3.97;;;1.90;;
68234;SDS011;55052;52.056;5.296;2023-04-03T01:09:48;3.38;;;2.03;;
68234;SDS011;55052;52.056;5.296;2023-04-03T01:14:50;4.78;;;2.00;;
68234;SDS011;55052;52.056;5.296;2023-04-03T01:28:12;5.65;;;2.47;;
68234;SDS011;55052;52.056;5.296;2023-04-03T01:30:50;5.07;;;2.20;;
68234;SDS011;55052;52.056;5.296;2023-04-03T01:33:31;5.55;;;2.17;;
68234;SDS011;55052;52.056;5.296;2023-04-03T01:35:58;4.18;;;2.42;;
68234;SDS011;55052;52.056;5.296;2023-04-03T01:38:25;4.07;;;2.00;;
68234;SDS011;55052;52.056;5.296;2023-04-03T01:40:52;6.00;;;2.20;;
68234;SDS011;55052;52.056;5.296;2023-04-03T01:43:19;6.32;;;2.40;;
68234;SDS011;55052;52.056;5.296;2023-04-03T01:45:46;3.50;;;2.20;;
68234;SDS011;55052;52.056;5.296;2023-04-03T01:48:12;4.57;;;2.40;;
68234;SDS011;55052;52.056;5.296;2023-04-03T01:50:39;4.38;;;2.42;;
68234;SDS011;55052;52.056;5.296;2023-04-03T01:53:06;5.63;;;2.50;;
68234;SDS011;55052;52.056;5.296;2023-04-03T01:55:33;5.15;;;2.40;;
68234;SDS011;55052;52.056;5.296;2023-04-03T01:58:00;4.28;;;2.53;;
68234;SDS011;55052;52.056;5.296;2023-04-03T02:00:26;5.75;;;2.40;;
68234;SDS011;55052;52.056;5.296;2023-04-03T02:02:53;5.18;;;2.35;;
68234;SDS011;55052;52.056;5.296;2023-04-03T02:05:20;5.32;;;2.45;;
68234;SDS011;55052;52.056;5.296;2023-04-03T02:07:47;6.63;;;2.40;;
68234;SDS011;55052;52.056;5.296;2023-04-03T02:10:14;4.95;;;2.25;;
68234;SDS011;55052;52.056;5.296;2023-04-03T02:12:41;5.40;;;2.70;;
68234;SDS011;55052;52.056;5.296;2023-04-03T02:15:08;7.00;;;2.50;;
68234;SDS011;55052;52.056;5.296;2023-04-03T02:17:35;5.55;;;2.30;;
68234;SDS011;55052;52.056;5.296;2023-04-03T02:20:02;4.38;;;2.33;;
68234;SDS011;55052;52.056;5.296;2023-04-03T02:22:30;5.50;;;2.47;;
68234;SDS011;55052;52.056;5.296;2023-04-03T02:24:56;4.53;;;2.10;;
68234;SDS011;55052;52.056;5.296;2023-04-03T02:27:23;6.20;;;2.63;;
68234;SDS011;55052;52.056;5.296;2023-04-03T02:29:50;7.28;;;2.95;;
68234;SDS011;55052;52.056;5.296;2023-04-03T02:32:17;4.28;;;2.53;;
68234;SDS011;55052;52.056;5.296;2023-04-03T02:34:43;5.15;;;2.90;;
68234;SDS011;55052;52.056;5.296;2023-04-03T02:37:10;4.55;;;2.65;;
68234;SDS011;55052;52.056;5.296;2023-04-03T02:39:37;5.72;;;2.40;;
68234;SDS011;55052;52.056;5.296;2023-04-03T02:42:04;4.57;;;2.30;;
68234;SDS011;55052;52.056;5.296;2023-04-03T02:44:31;4.07;;;2.20;;
68234;SDS011;55052;52.056;5.296;2023-04-03T02:46:58;5.85;;;2.30;;
68234;SDS011;55052;52.056;5.296;2023-04-03T02:49:24;5.80;;;2.30;;
68234;SDS011;55052;52.056;5.296;2023-04-03T02:51:51;6.13;;;2.33;;
68234;SDS011;55052;52.056;5.296;2023-04-03T02:54:19;6.05;;;2.35;;
68234;SDS011;55052;52.056;5.296;2023-04-03T02:56:46;8.18;;;2.40;;
68234;SDS011;55052;52.056;5.296;2023-04-03T02:59:13;6.60;;;2.30;;
68234;SDS011;55052;52.056;5.296;2023-04-03T03:01:40;6.20;;;2.42;;
68234;SDS011;55052;52.056;5.296;2023-04-03T03:04:07;4.22;;;2.60;;
68234;SDS011;55052;52.056;5.296;2023-04-03T03:06:34;7.00;;;2.60;;
68234;SDS011;55052;52.056;5.296;2023-04-03T03:09:00;4.95;;;2.83;;
68234;SDS011;55052;52.056;5.296;2023-04-03T03:11:27;8.65;;;2.70;;
68234;SDS011;55052;52.056;5.296;2023-04-03T03:13:54;4.55;;;2.30;;
68234;SDS011;55052;52.056;5.296;2023-04-03T03:16:21;4.32;;;2.40;;
68234;SDS011;55052;52.056;5.296;2023-04-03T03:18:48;8.98;;;2.60;;
68234;SDS011;55052;52.056;5.296;2023-04-03T03:21:14;5.32;;;2.30;;
68234;SDS011;55052;52.056;5.296;2023-04-03T03:23:41;5.85;;;2.30;;
68234;SDS011;55052;52.056;5.296;2023-04-03T03:26:08;8.23;;;2.40;;
68234;SDS011;55052;52.056;5.296;2023-04-03T03:28:37;6.53;;;2.38;;
68234;SDS011;55052;52.056;5.296;2023-04-03T03:31:05;4.70;;;2.40;;
68234;SDS011;55052;52.056;5.296;2023-04-03T03:33:32;6.03;;;2.53;;
68234;SDS011;55052;52.056;5.296;2023-04-03T03:36:00;6.88;;;2.50;;
68234;SDS011;55052;52.056;5.296;2023-04-03T03:38:26;6.05;;;2.40;;
68234;SDS011;55052;52.056;5.296;2023-04-03T03:40:53;4.60;;;2.20;;
68234;SDS011;55052;52.056;5.296;2023-04-03T03:43:20;5.30;;;2.67;;
68234;SDS011;55052;52.056;5.296;2023-04-03T03:45:50;5.70;;;2.53;;
68234;SDS011;55052;52.056;5.296;2023-04-03T03:48:18;6.18;;;2.88;;
68234;SDS011;55052;52.056;5.296;2023-04-03T03:50:46;5.45;;;2.85;;
68234;SDS011;55052;52.056;5.296;2023-04-03T03:53:13;8.18;;;2.90;;
68234;SDS011;55052;52.056;5.296;2023-04-03T03:55:41;6.32;;;2.65;;
68234;SDS011;55052;52.056;5.296;2023-04-03T03:58:08;6.55;;;2.60;;
68234;SDS011;55052;52.056;5.296;2023-04-03T04:00:35;7.43;;;2.83;;
68234;SDS011;55052;52.056;5.296;2023-04-03T04:03:02;5.80;;;2.75;;
68234;SDS011;55052;52.056;5.296;2023-04-03T04:05:29;4.90;;;2.63;;
68234;SDS011;55052;52.056;5.296;2023-04-03T04:07:56;6.57;;;2.95;;
68234;SDS011;55052;52.056;5.296;2023-04-03T04:10:23;5.47;;;2.55;;
68234;SDS011;55052;52.056;5.296;2023-04-03T04:12:50;5.03;;;2.50;;
68234;SDS011;55052;52.056;5.296;2023-04-03T04:15:17;6.22;;;2.80;;
68234;SDS011;55052;52.056;5.296;2023-04-03T04:17:44;7.65;;;2.90;;
68234;SDS011;55052;52.056;5.296;2023-04-03T04:20:11;5.53;;;2.97;;
68234;SDS011;55052;52.056;5.296;2023-04-03T04:22:38;10.27;;;3.10;;
68234;SDS011;55052;52.056;5.296;2023-04-03T04:25:05;9.43;;;2.88;;
68234;SDS011;55052;52.056;5.296;2023-04-03T04:27:32;8.05;;;2.75;;
68234;SDS011;55052;52.056;5.296;2023-04-03T04:29:59;8.25;;;3.80;;
68234;SDS011;55052;52.056;5.296;2023-04-03T04:32:27;6.88;;;2.47;;
68234;SDS011;55052;52.056;5.296;2023-04-03T04:34:53;6.82;;;3.05;;
68234;SDS011;55052;52.056;5.296;2023-04-03T04:37:20;6.55;;;2.97;;
68234;SDS011;55052;52.056;5.296;2023-04-03T04:39:47;8.00;;;3.08;;
68234;SDS011;55052;52.056;5.296;2023-04-03T04:42:14;8.05;;;3.10;;
68234;SDS011;55052;52.056;5.296;2023-04-03T04:44:43;7.63;;;2.97;;
68234;SDS011;55052;52.056;5.296;2023-04-03T04:47:09;6.47;;;2.90;;
68234;SDS011;55052;52.056;5.296;2023-04-03T04:49:36;6.43;;;3.00;;
68234;SDS011;55052;52.056;5.296;2023-04-03T04:52:03;6.97;;;3.00;;
68234;SDS011;55052;52.056;5.296;2023-04-03T04:54:30;7.63;;;2.80;;
68234;SDS011;55052;52.056;5.296;2023-04-03T04:56:57;11.70;;;3.50;;
68234;SDS011;55052;52.056;5.296;2023-04-03T04:59:24;7.68;;;2.78;;
68234;SDS011;55052;52.056;5.296;2023-04-03T05:01:51;7.75;;;3.05;;
68234;SDS011;55052;52.056;5.296;2023-04-03T05:04:18;7.28;;;3.00;;
68234;SDS011;55052;52.056;5.296;2023-04-03T05:06:44;5.82;;;3.13;;
68234;SDS011;55052;52.056;5.296;2023-04-03T05:09:11;6.97;;;3.35;;
68234;SDS011;55052;52.056;5.296;2023-04-03T05:11:38;5.07;;;3.10;;
68234;SDS011;55052;52.056;5.296;2023-04-03T05:14:05;7.85;;;2.90;;
68234;SDS011;55052;52.056;5.296;2023-04-03T05:16:33;5.00;;;2.83;;
68234;SDS011;55052;52.056;5.296;2023-04-03T05:19:00;5.68;;;2.97;;
68234;SDS011;55052;52.056;5.296;2023-04-03T05:21:27;6.25;;;3.00;;
68234;SDS011;55052;52.056;5.296;2023-04-03T05:23:58;9.40;;;3.13;;
68234;SDS011;55052;52.056;5.296;2023-04-03T05:26:29;9.57;;;3.80;;
68234;SDS011;55052;52.056;5.296;2023-04-03T05:28:56;6.32;;;3.22;;
68234;SDS011;55052;52.056;5.296;2023-04-03T05:31:23;7.90;;;3.15;;
68234;SDS011;55052;52.056;5.296;2023-04-03T05:33:50;7.10;;;3.08;;
68234;SDS011;55052;52.056;5.296;2023-04-03T05:36:17;4.65;;;3.05;;
68234;SDS011;55052;52.056;5.296;2023-04-03T05:38:44;6.18;;;2.90;;
68234;SDS011;55052;52.056;5.296;2023-04-03T05:41:11;8.15;;;3.33;;
68234;SDS011;55052;52.056;5.296;2023-04-03T05:43:38;11.70;;;3.58;;
68234;SDS011;55052;52.056;5.296;2023-04-03T05:46:09;7.25;;;3.33;;
68234;SDS011;55052;52.056;5.296;2023-04-03T05:48:41;7.78;;;3.70;;
68234;SDS011;55052;52.056;5.296;2023-04-03T05:51:13;5.32;;;3.10;;
68234;SDS011;55052;52.056;5.296;2023-04-03T05:53:45;7.03;;;3.25;;
68234;SDS011;55052;52.056;5.296;2023-04-03T05:56:14;8.05;;;3.40;;
68234;SDS011;55052;52.056;5.296;2023-04-03T05:58:41;6.13;;;3.22;;
68234;SDS011;55052;52.056;5.296;2023-04-03T06:01:07;7.80;;;3.17;;
68234;SDS011;55052;52.056;5.296;2023-04-03T06:03:34;6.60;;;3.08;;
68234;SDS011;55052;52.056;5.296;2023-04-03T06:06:05;6.32;;;3.15;;
68234;SDS011;55052;52.056;5.296;2023-04-03T06:08:32;13.73;;;4.28;;
68234;SDS011;55052;52.056;5.296;2023-04-03T06:10:59;9.00;;;3.40;;
68234;SDS011;55052;52.056;5.296;2023-04-03T06:13:28;7.65;;;2.92;;
68234;SDS011;55052;52.056;5.296;2023-04-03T06:15:55;6.18;;;3.40;;
68234;SDS011;55052;52.056;5.296;2023-04-03T06:18:22;8.02;;;2.97;;
68234;SDS011;55052;52.056;5.296;2023-04-03T06:20:50;6.03;;;2.80;;
68234;SDS011;55052;52.056;5.296;2023-04-03T06:23:17;9.13;;;3.17;;
68234;SDS011;55052;52.056;5.296;2023-04-03T06:25:43;8.25;;;3.20;;
68234;SDS011;55052;52.056;5.296;2023-04-03T06:28:10;6.38;;;2.90;;
68234;SDS011;55052;52.056;5.296;2023-04-03T06:30:37;8.73;;;3.40;;
68234;SDS011;55052;52.056;5.296;2023-04-03T06:33:04;6.47;;;2.83;;
68234;SDS011;55052;52.056;5.296;2023-04-03T06:35:31;6.78;;;3.13;;
68234;SDS011;55052;52.056;5.296;2023-04-03T06:38:01;6.37;;;3.17;;
68234;SDS011;55052;52.056;5.296;2023-04-03T06:40:30;6.43;;;2.95;;
68234;SDS011;55052;52.056;5.296;2023-04-03T06:42:56;7.30;;;2.65;;
68234;SDS011;55052;52.056;5.296;2023-04-03T06:45:23;8.02;;;3.00;;
68234;SDS011;55052;52.056;5.296;2023-04-03T06:47:51;7.90;;;2.85;;
68234;SDS011;55052;52.056;5.296;2023-04-03T06:50:18;7.00;;;2.75;;
68234;SDS011;55052;52.056;5.296;2023-04-03T06:52:45;5.78;;;3.08;;
68234;SDS011;55052;52.056;5.296;2023-04-03T06:55:12;9.93;;;3.00;;
68234;SDS011;55052;52.056;5.296;2023-04-03T06:57:39;8.07;;;2.97;;
68234;SDS011;55052;52.056;5.296;2023-04-03T07:00:06;7.85;;;3.63;;
68234;SDS011;55052;52.056;5.296;2023-04-03T07:02:33;9.45;;;2.92;;
68234;SDS011;55052;52.056;5.296;2023-04-03T07:05:00;5.57;;;2.78;;
68234;SDS011;55052;52.056;5.296;2023-04-03T07:07:27;5.43;;;2.80;;
68234;SDS011;55052;52.056;5.296;2023-04-03T07:09:54;12.25;;;3.10;;
68234;SDS011;55052;52.056;5.296;2023-04-03T07:12:21;8.43;;;2.92;;
68234;SDS011;55052;52.056;5.296;2023-04-03T07:14:48;6.35;;;2.70;;
68234;SDS011;55052;52.056;5.296;2023-04-03T07:17:15;10.48;;;2.80;;
68234;SDS011;55052;52.056;5.296;2023-04-03T07:19:41;5.20;;;2.92;;
68234;SDS011;55052;52.056;5.296;2023-04-03T07:22:08;9.00;;;2.85;;
68234;SDS011;55052;52.056;5.296;2023-04-03T07:24:37;5.30;;;2.35;;
68234;SDS011;55052;52.056;5.296;2023-04-03T07:27:04;7.43;;;2.80;;
68234;SDS011;55052;52.056;5.296;2023-04-03T07:29:31;5.05;;;2.70;;
68234;SDS011;55052;52.056;5.296;2023-04-03T07:31:58;8.55;;;2.80;;
68234;SDS011;55052;52.056;5.296;2023-04-03T07:34:25;7.30;;;2.65;;
68234;SDS011;55052;52.056;5.296;2023-04-03T07:36:52;6.72;;;2.80;;
68234;SDS011;55052;52.056;5.296;2023-04-03T07:39:19;7.20;;;2.97;;
68234;SDS011;55052;52.056;5.296;2023-04-03T07:41:45;5.93;;;2.50;;
68234;SDS011;55052;52.056;5.296;2023-04-03T07:44:12;5.00;;;2.30;;
68234;SDS011;55052;52.056;5.296;2023-04-03T07:46:39;9.75;;;2.75;;
68234;SDS011;55052;52.056;5.296;2023-04-03T07:49:07;7.22;;;2.55;;
68234;SDS011;55052;52.056;5.296;2023-04-03T07:51:34;6.55;;;2.53;;
68234;SDS011;55052;52.056;5.296;2023-04-03T07:54:01;7.80;;;2.85;;
68234;SDS011;55052;52.056;5.296;2023-04-03T07:56:28;10.63;;;2.63;;
68234;SDS011;55052;52.056;5.296;2023-04-03T07:58:55;7.57;;;2.90;;
68234;SDS011;55052;52.056;5.296;2023-04-03T08:01:22;6.15;;;2.20;;
68234;SDS011;55052;52.056;5.296;2023-04-03T08:03:48;8.73;;;2.53;;
68234;SDS011;55052;52.056;5.296;2023-04-03T08:06:15;8.10;;;2.75;;
68234;SDS011;55052;52.056;5.296;2023-04-03T08:08:48;7.05;;;2.55;;
68234;SDS011;55052;52.056;5.296;2023-04-03T08:11:15;5.80;;;2.40;;
68234;SDS011;55052;52.056;5.296;2023-04-03T08:13:42;7.15;;;2.30;;
68234;SDS011;55052;52.056;5.296;2023-04-03T08:16:10;7.13;;;2.70;;
68234;SDS011;55052;52.056;5.296;2023-04-03T08:18:38;7.80;;;2.47;;
68234;SDS011;55052;52.056;5.296;2023-04-03T08:21:06;6.18;;;2.47;;
68234;SDS011;55052;52.056;5.296;2023-04-03T08:23:37;5.88;;;2.40;;
68234;SDS011;55052;52.056;5.296;2023-04-03T08:26:10;6.50;;;2.55;;
68234;SDS011;55052;52.056;5.296;2023-04-03T08:28:38;4.95;;;2.47;;
68234;SDS011;55052;52.056;5.296;2023-04-03T08:31:07;6.05;;;2.58;;
68234;SDS011;55052;52.056;5.296;2023-04-03T08:33:40;6.63;;;2.53;;
68234;SDS011;55052;52.056;5.296;2023-04-03T08:36:08;7.55;;;2.30;;
68234;SDS011;55052;52.056;5.296;2023-04-03T08:38:43;5.05;;;2.38;;
68234;SDS011;55052;52.056;5.296;2023-04-03T08:41:29;4.28;;;2.28;;
68234;SDS011;55052;52.056;5.296;2023-04-03T08:44:03;4.78;;;2.10;;
68234;SDS011;55052;52.056;5.296;2023-04-03T08:49:39;4.97;;;2.00;;
68234;SDS011;55052;52.056;5.296;2023-04-03T08:55:05;5.00;;;2.13;;
68234;SDS011;55052;52.056;5.296;2023-04-03T08:57:40;5.05;;;2.10;;
68234;SDS011;55052;52.056;5.296;2023-04-03T09:02:44;2.75;;;1.80;;
68234;SDS011;55052;52.056;5.296;2023-04-03T09:05:35;3.53;;;1.77;;
68234;SDS011;55052;52.056;5.296;2023-04-03T09:08:18;2.90;;;1.50;;
68234;SDS011;55052;52.056;5.296;2023-04-03T09:10:57;3.83;;;1.60;;
68234;SDS011;55052;52.056;5.296;2023-04-03T09:19:38;3.83;;;1.63;;
68234;SDS011;55052;52.056;5.296;2023-04-03T09:22:21;3.75;;;1.73;;
68234;SDS011;55052;52.056;5.296;2023-04-03T09:25:05;4.22;;;1.70;;
68234;SDS011;55052;52.056;5.296;2023-04-03T09:27:39;3.35;;;1.60;;
68234;SDS011;55052;52.056;5.296;2023-04-03T09:30:11;2.35;;;1.33;;
68234;SDS011;55052;52.056;5.296;2023-04-03T09:32:46;4.68;;;1.63;;
68234;SDS011;55052;52.056;5.296;2023-04-03T09:35:18;4.85;;;1.65;;
68234;SDS011;55052;52.056;5.296;2023-04-03T09:40:42;1.98;;;1.30;;
68234;SDS011;55052;52.056;5.296;2023-04-03T09:43:30;3.30;;;1.30;;
68234;SDS011;55052;52.056;5.296;2023-04-03T09:46:18;2.70;;;1.30;;
68234;SDS011;55052;52.056;5.296;2023-04-03T09:48:50;2.30;;;1.40;;
68234;SDS011;55052;52.056;5.296;2023-04-03T09:51:33;3.13;;;1.45;;
68234;SDS011;55052;52.056;5.296;2023-04-03T09:54:00;2.67;;;1.42;;
68234;SDS011;55052;52.056;5.296;2023-04-03T09:57:07;2.05;;;1.25;;
68234;SDS011;55052;52.056;5.296;2023-04-03T09:59:44;4.85;;;1.38;;
68234;SDS011;55052;52.056;5.296;2023-04-03T10:02:33;3.40;;;1.25;;
68234;SDS011;55052;52.056;5.296;2023-04-03T10:05:00;2.25;;;1.30;;
68234;SDS011;55052;52.056;5.296;2023-04-03T10:07:32;1.30;;;1.10;;
68234;SDS011;55052;52.056;5.296;2023-04-03T10:10:10;1.58;;;1.00;;
68234;SDS011;55052;52.056;5.296;2023-04-03T10:12:42;1.00;;;1.00;;
68234;SDS011;55052;52.056;5.296;2023-04-03T10:15:13;1.20;;;1.10;;
68234;SDS011;55052;52.056;5.296;2023-04-03T10:17:58;1.25;;;1.10;;
68234;SDS011;55052;52.056;5.296;2023-04-03T10:20:47;1.05;;;1.00;;
68234;SDS011;55052;52.056;5.296;2023-04-03T10:23:22;1.02;;;1.00;;
68234;SDS011;55052;52.056;5.296;2023-04-03T10:26:17;2.97;;;1.30;;
68234;SDS011;55052;52.056;5.296;2023-04-03T10:34:57;2.15;;;1.00;;
68234;SDS011;55052;52.056;5.296;2023-04-03T10:37:43;2.20;;;1.10;;
68234;SDS011;55052;52.056;5.296;2023-04-03T10:40:39;2.08;;;1.20;;
68234;SDS011;55052;52.056;5.296;2023-04-03T10:46:16;1.77;;;1.20;;
68234;SDS011;55052;52.056;5.296;2023-04-03T10:49:05;1.52;;;1.20;;
68234;SDS011;55052;52.056;5.296;2023-04-03T10:54:21;1.75;;;1.00;;
68234;SDS011;55052;52.056;5.296;2023-04-03T10:56:53;1.48;;;1.08;;
68234;SDS011;55052;52.056;5.296;2023-04-03T10:59:42;1.50;;;1.10;;
68234;SDS011;55052;52.056;5.296;2023-04-03T11:02:31;2.97;;;1.30;;
68234;SDS011;55052;52.056;5.296;2023-04-03T11:07:57;1.23;;;1.10;;
68234;SDS011;55052;52.056;5.296;2023-04-03T11:10:36;1.50;;;1.27;;
68234;SDS011;55052;52.056;5.296;2023-04-03T11:13:15;1.80;;;1.20;;
68234;SDS011;55052;52.056;5.296;2023-04-03T11:15:59;1.95;;;1.13;;
68234;SDS011;55052;52.056;5.296;2023-04-03T11:18:35;2.95;;;1.40;;
68234;SDS011;55052;52.056;5.296;2023-04-03T11:21:07;2.47;;;1.30;;
68234;SDS011;55052;52.056;5.296;2023-04-03T11:23:46;2.83;;;1.23;;
68234;SDS011;55052;52.056;5.296;2023-04-03T11:26:16;3.50;;;1.40;;
68234;SDS011;55052;52.056;5.296;2023-04-03T11:28:50;3.47;;;1.20;;
68234;SDS011;55052;52.056;5.296;2023-04-03T11:36:53;1.77;;;1.00;;
68234;SDS011;55052;52.056;5.296;2023-04-03T11:39:32;1.60;;;1.10;;
68234;SDS011;55052;52.056;5.296;2023-04-03T11:47:10;2.63;;;1.23;;
68234;SDS011;55052;52.056;5.296;2023-04-03T11:49:55;2.58;;;1.30;;
68234;SDS011;55052;52.056;5.296;2023-04-03T12:11:23;3.58;;;1.40;;
68234;SDS011;55052;52.056;5.296;2023-04-03T12:35:01;3.50;;;1.38;;
68234;SDS011;55052;52.056;5.296;2023-04-03T12:40:30;3.45;;;1.50;;
68234;SDS011;55052;52.056;5.296;2023-04-03T12:46:07;4.40;;;1.50;;
68234;SDS011;55052;52.056;5.296;2023-04-03T12:51:15;2.90;;;1.45;;
68234;SDS011;55052;52.056;5.296;2023-04-03T12:53:46;3.00;;;1.20;;
68234;SDS011;55052;52.056;5.296;2023-04-03T12:56:29;3.28;;;1.30;;
68234;SDS011;55052;52.056;5.296;2023-04-03T12:59:15;5.68;;;1.50;;
68234;SDS011;55052;52.056;5.296;2023-04-03T13:01:57;4.93;;;1.35;;
68234;SDS011;55052;52.056;5.296;2023-04-03T13:04:30;4.15;;;1.40;;
68234;SDS011;55052;52.056;5.296;2023-04-03T13:06:58;3.42;;;1.40;;
68234;SDS011;55052;52.056;5.296;2023-04-03T13:09:26;2.88;;;1.42;;
68234;SDS011;55052;52.056;5.296;2023-04-03T13:11:59;3.95;;;1.20;;
68234;SDS011;55052;52.056;5.296;2023-04-03T13:14:29;4.38;;;1.52;;
68234;SDS011;55052;52.056;5.296;2023-04-03T13:16:58;2.53;;;1.38;;
68234;SDS011;55052;52.056;5.296;2023-04-03T13:19:28;3.88;;;1.60;;
68234;SDS011;55052;52.056;5.296;2023-04-03T13:21:58;4.35;;;1.80;;
68234;SDS011;55052;52.056;5.296;2023-04-03T13:24:29;2.63;;;1.30;;
68234;SDS011;55052;52.056;5.296;2023-04-03T13:26:58;2.70;;;1.40;;
68234;SDS011;55052;52.056;5.296;2023-04-03T13:29:29;3.78;;;1.67;;
68234;SDS011;55052;52.056;5.296;2023-04-03T13:31:59;2.38;;;1.20;;
68234;SDS011;55052;52.056;5.296;2023-04-03T13:34:28;3.80;;;1.70;;
68234;SDS011;55052;52.056;5.296;2023-04-03T13:37:01;2.30;;;1.20;;
68234;SDS011;55052;52.056;5.296;2023-04-03T13:39:32;2.90;;;1.38;;
68234;SDS011;55052;52.056;5.296;2023-04-03T13:42:23;2.33;;;1.40;;
68234;SDS011;55052;52.056;5.296;2023-04-03T13:47:47;3.63;;;1.55;;
68234;SDS011;55052;52.056;5.296;2023-04-03T13:50:16;3.22;;;1.55;;
68234;SDS011;55052;52.056;5.296;2023-04-03T13:52:47;4.28;;;1.40;;
68234;SDS011;55052;52.056;5.296;2023-04-03T13:55:19;3.65;;;1.65;;
68234;SDS011;55052;52.056;5.296;2023-04-03T14:03:00;3.13;;;1.33;;
68234;SDS011;55052;52.056;5.296;2023-04-03T14:05:27;4.05;;;1.63;;
68234;SDS011;55052;52.056;5.296;2023-04-03T14:07:54;4.63;;;1.60;;
68234;SDS011;55052;52.056;5.296;2023-04-03T14:10:21;4.07;;;1.60;;
68234;SDS011;55052;52.056;5.296;2023-04-03T14:12:48;3.03;;;1.50;;
68234;SDS011;55052;52.056;5.296;2023-04-03T14:15:23;2.20;;;1.50;;
68234;SDS011;55052;52.056;5.296;2023-04-03T14:17:53;2.75;;;1.48;;
68234;SDS011;55052;52.056;5.296;2023-04-03T14:20:22;2.88;;;1.30;;
68234;SDS011;55052;52.056;5.296;2023-04-03T14:22:51;3.95;;;1.33;;
68234;SDS011;55052;52.056;5.296;2023-04-03T14:25:20;3.90;;;1.40;;
68234;SDS011;55052;52.056;5.296;2023-04-03T14:27:49;3.90;;;1.40;;
68234;SDS011;55052;52.056;5.296;2023-04-03T14:30:19;5.10;;;1.70;;
68234;SDS011;55052;52.056;5.296;2023-04-03T14:32:54;6.10;;;1.70;;
68234;SDS011;55052;52.056;5.296;2023-04-03T14:35:21;2.88;;;1.30;;
68234;SDS011;55052;52.056;5.296;2023-04-03T14:37:49;5.57;;;1.40;;
68234;SDS011;55052;52.056;5.296;2023-04-03T14:40:24;2.30;;;1.20;;
68234;SDS011;55052;52.056;5.296;2023-04-03T14:42:53;3.00;;;1.33;;
68234;SDS011;55052;52.056;5.296;2023-04-03T14:45:22;4.00;;;1.45;;
68234;SDS011;55052;52.056;5.296;2023-04-03T14:47:54;3.33;;;1.60;;
68234;SDS011;55052;52.056;5.296;2023-04-03T14:50:23;3.40;;;1.60;;
68234;SDS011;55052;52.056;5.296;2023-04-03T14:52:53;3.60;;;1.52;;
68234;SDS011;55052;52.056;5.296;2023-04-03T14:55:23;3.45;;;1.60;;
68234;SDS011;55052;52.056;5.296;2023-04-03T14:57:51;3.22;;;1.48;;
68234;SDS011;55052;52.056;5.296;2023-04-03T15:00:20;2.88;;;1.30;;
68234;SDS011;55052;52.056;5.296;2023-04-03T15:02:47;4.65;;;1.80;;
68234;SDS011;55052;52.056;5.296;2023-04-03T15:05:15;3.70;;;1.40;;
68234;SDS011;55052;52.056;5.296;2023-04-03T15:07:44;3.38;;;1.45;;
68234;SDS011;55052;52.056;5.296;2023-04-03T15:10:25;3.83;;;1.70;;
68234;SDS011;55052;52.056;5.296;2023-04-03T15:12:54;2.97;;;1.60;;
68234;SDS011;55052;52.056;5.296;2023-04-03T15:15:22;4.00;;;1.85;;
68234;SDS011;55052;52.056;5.296;2023-04-03T15:17:51;3.45;;;1.50;;
68234;SDS011;55052;52.056;5.296;2023-04-03T15:20:21;6.45;;;2.05;;
68234;SDS011;55052;52.056;5.296;2023-04-03T15:22:50;4.03;;;1.88;;
68234;SDS011;55052;52.056;5.296;2023-04-03T15:25:18;3.88;;;1.60;;
68234;SDS011;55052;52.056;5.296;2023-04-03T15:27:45;2.83;;;1.50;;
68234;SDS011;55052;52.056;5.296;2023-04-03T15:30:15;4.70;;;1.88;;
68234;SDS011;55052;52.056;5.296;2023-04-03T15:32:44;3.42;;;1.77;;
68234;SDS011;55052;52.056;5.296;2023-04-03T15:35:12;4.72;;;1.80;;
68234;SDS011;55052;52.056;5.296;2023-04-03T15:37:39;4.97;;;1.73;;
68234;SDS011;55052;52.056;5.296;2023-04-03T15:40:06;3.45;;;1.52;;
68234;SDS011;55052;52.056;5.296;2023-04-03T15:42:33;3.90;;;1.60;;
68234;SDS011;55052;52.056;5.296;2023-04-03T15:45:00;5.35;;;1.67;;
68234;SDS011;55052;52.056;5.296;2023-04-03T15:47:27;4.68;;;1.80;;
68234;SDS011;55052;52.056;5.296;2023-04-03T15:49:54;4.32;;;1.77;;
68234;SDS011;55052;52.056;5.296;2023-04-03T15:52:21;4.43;;;1.75;;
68234;SDS011;55052;52.056;5.296;2023-04-03T15:54:48;4.45;;;1.80;;
68234;SDS011;55052;52.056;5.296;2023-04-03T15:57:15;4.45;;;1.67;;
68234;SDS011;55052;52.056;5.296;2023-04-03T15:59:42;4.70;;;1.73;;
68234;SDS011;55052;52.056;5.296;2023-04-03T16:02:09;4.75;;;1.77;;
68234;SDS011;55052;52.056;5.296;2023-04-03T16:04:39;3.78;;;1.60;;
68234;SDS011;55052;52.056;5.296;2023-04-03T16:07:06;4.40;;;1.65;;
68234;SDS011;55052;52.056;5.296;2023-04-03T16:09:33;4.55;;;1.80;;
68234;SDS011;55052;52.056;5.296;2023-04-03T16:12:01;4.60;;;1.95;;
68234;SDS011;55052;52.056;5.296;2023-04-03T16:14:28;5.82;;;1.83;;
68234;SDS011;55052;52.056;5.296;2023-04-03T16:16:57;5.57;;;1.95;;
68234;SDS011;55052;52.056;5.296;2023-04-03T16:19:25;4.03;;;1.80;;
68234;SDS011;55052;52.056;5.296;2023-04-03T16:21:52;3.58;;;1.88;;
68234;SDS011;55052;52.056;5.296;2023-04-03T16:24:20;4.93;;;1.90;;
68234;SDS011;55052;52.056;5.296;2023-04-03T16:26:47;5.82;;;1.75;;
68234;SDS011;55052;52.056;5.296;2023-04-03T16:29:14;4.60;;;1.88;;
68234;SDS011;55052;52.056;5.296;2023-04-03T16:31:41;4.95;;;2.08;;
68234;SDS011;55052;52.056;5.296;2023-04-03T16:34:08;6.30;;;1.60;;
68234;SDS011;55052;52.056;5.296;2023-04-03T16:36:35;4.93;;;1.83;;
68234;SDS011;55052;52.056;5.296;2023-04-03T16:39:03;6.78;;;2.40;;
68234;SDS011;55052;52.056;5.296;2023-04-03T16:41:30;4.35;;;1.80;;
68234;SDS011;55052;52.056;5.296;2023-04-03T16:43:58;4.85;;;1.67;;
68234;SDS011;55052;52.056;5.296;2023-04-03T16:46:25;3.10;;;1.52;;
68234;SDS011;55052;52.056;5.296;2023-04-03T16:48:51;4.93;;;1.85;;
68234;SDS011;55052;52.056;5.296;2023-04-03T16:51:18;7.13;;;1.88;;
68234;SDS011;55052;52.056;5.296;2023-04-03T16:53:45;4.30;;;1.80;;
68234;SDS011;55052;52.056;5.296;2023-04-03T16:56:12;4.70;;;1.80;;
68234;SDS011;55052;52.056;5.296;2023-04-03T16:58:39;5.20;;;1.90;;